sensor_id;sensor_type;location;lat;lon;timestamp;P1;durP1;ratioP1;P2;durP2;ratioP2
11197;SDS011;5655;48.744;9.162;2023-02-15T00:01:26;38.00;;;22.02;;
11197;SDS011;5655;48.744;9.162;2023-02-15T00:03:51;36.07;;;19.60;;
11197;SDS011;5655;48.744;9.162;2023-02-15T00:06:17;34.67;;;19.47;;
11197;SDS011;5655;48.744;9.162;2023-02-15T00:08:43;33.57;;;18.73;;
11197;SDS011;5655;48.744;9.162;2023-02-15T00:13:35;38.47;;;20.40;;
11197;SDS011;5655;48.744;9.162;2023-02-15T00:16:02;35.33;;;19.23;;
11197;SDS011;5655;48.744;9.162;2023-02-15T00:18:29;36.63;;;19.57;;
11197;SDS011;5655;48.744;9.162;2023-02-15T00:20:55;32.43;;;17.87;;
11197;SDS011;5655;48.744;9.162;2023-02-15T00:23:20;38.07;;;18.43;;
11197;SDS011;5655;48.744;9.162;2023-02-15T00:25:46;36.03;;;20.07;;
11197;SDS011;5655;48.744;9.162;2023-02-15T00:28:11;34.47;;;17.83;;
11197;SDS011;5655;48.744;9.162;2023-02-15T00:30:36;33.93;;;19.63;;
11197;SDS011;5655;48.744;9.162;2023-02-15T00:33:01;31.80;;;18.67;;
11197;SDS011;5655;48.744;9.162;2023-02-15T00:35:27;36.77;;;19.50;;
11197;SDS011;5655;48.744;9.162;2023-02-15T00:37:52;35.50;;;18.50;;
11197;SDS011;5655;48.744;9.162;2023-02-15T00:40:18;41.20;;;20.60;;
11197;SDS011;5655;48.744;9.162;2023-02-15T00:42:43;35.37;;;18.00;;
11197;SDS011;5655;48.744;9.162;2023-02-15T00:45:09;34.03;;;18.57;;
11197;SDS011;5655;48.744;9.162;2023-02-15T00:47:34;35.17;;;18.27;;
11197;SDS011;5655;48.744;9.162;2023-02-15T00:49:59;34.73;;;19.20;;
11197;SDS011;5655;48.744;9.162;2023-02-15T00:52:25;37.63;;;18.20;;
11197;SDS011;5655;48.744;9.162;2023-02-15T00:54:50;34.93;;;19.20;;
11197;SDS011;5655;48.744;9.162;2023-02-15T00:57:15;34.77;;;18.33;;
11197;SDS011;5655;48.744;9.162;2023-02-15T00:59:41;31.53;;;17.53;;
11197;SDS011;5655;48.744;9.162;2023-02-15T01:02:06;35.37;;;19.80;;
11197;SDS011;5655;48.744;9.162;2023-02-15T01:04:31;33.37;;;18.30;;
11197;SDS011;5655;48.744;9.162;2023-02-15T01:06:56;33.40;;;18.67;;
11197;SDS011;5655;48.744;9.162;2023-02-15T01:09:22;31.13;;;18.63;;
11197;SDS011;5655;48.744;9.162;2023-02-15T01:11:47;33.87;;;18.50;;
11197;SDS011;5655;48.744;9.162;2023-02-15T01:14:12;34.43;;;18.03;;
11197;SDS011;5655;48.744;9.162;2023-02-15T01:16:38;33.03;;;18.47;;
11197;SDS011;5655;48.744;9.162;2023-02-15T01:19:03;34.07;;;18.57;;
11197;SDS011;5655;48.744;9.162;2023-02-15T01:21:29;34.13;;;18.87;;
11197;SDS011;5655;48.744;9.162;2023-02-15T01:23:54;30.97;;;17.53;;
11197;SDS011;5655;48.744;9.162;2023-02-15T01:26:19;34.63;;;18.30;;
11197;SDS011;5655;48.744;9.162;2023-02-15T01:28:45;34.63;;;17.77;;
11197;SDS011;5655;48.744;9.162;2023-02-15T01:31:12;35.90;;;19.27;;
11197;SDS011;5655;48.744;9.162;2023-02-15T01:33:39;28.67;;;17.60;;
11197;SDS011;5655;48.744;9.162;2023-02-15T01:36:04;32.93;;;16.73;;
11197;SDS011;5655;48.744;9.162;2023-02-15T01:38:30;31.57;;;16.90;;
11197;SDS011;5655;48.744;9.162;2023-02-15T01:40:55;33.73;;;18.03;;
11197;SDS011;5655;48.744;9.162;2023-02-15T01:43:45;29.03;;;17.00;;
11197;SDS011;5655;48.744;9.162;2023-02-15T01:46:22;27.73;;;17.57;;
11197;SDS011;5655;48.744;9.162;2023-02-15T01:48:53;31.67;;;17.57;;
11197;SDS011;5655;48.744;9.162;2023-02-15T01:51:25;35.00;;;19.63;;
11197;SDS011;5655;48.744;9.162;2023-02-15T01:53:57;31.97;;;18.33;;
11197;SDS011;5655;48.744;9.162;2023-02-15T01:56:28;35.47;;;19.63;;
11197;SDS011;5655;48.744;9.162;2023-02-15T01:58:59;33.80;;;18.17;;
11197;SDS011;5655;48.744;9.162;2023-02-15T02:01:27;37.13;;;20.17;;
11197;SDS011;5655;48.744;9.162;2023-02-15T02:03:59;35.33;;;18.63;;
11197;SDS011;5655;48.744;9.162;2023-02-15T02:06:29;32.97;;;18.00;;
11197;SDS011;5655;48.744;9.162;2023-02-15T02:08:56;33.90;;;18.43;;
11197;SDS011;5655;48.744;9.162;2023-02-15T02:11:23;38.50;;;20.27;;
11197;SDS011;5655;48.744;9.162;2023-02-15T02:13:48;38.27;;;19.83;;
11197;SDS011;5655;48.744;9.162;2023-02-15T02:16:19;37.17;;;19.70;;
11197;SDS011;5655;48.744;9.162;2023-02-15T02:18:59;35.67;;;20.17;;
11197;SDS011;5655;48.744;9.162;2023-02-15T02:21:33;42.20;;;22.33;;
11197;SDS011;5655;48.744;9.162;2023-02-15T02:39:54;41.43;;;22.30;;
11197;SDS011;5655;48.744;9.162;2023-02-15T02:47:49;36.30;;;20.53;;
11197;SDS011;5655;48.744;9.162;2023-02-15T02:50:22;40.33;;;20.20;;
11197;SDS011;5655;48.744;9.162;2023-02-15T02:52:51;37.40;;;20.87;;
11197;SDS011;5655;48.744;9.162;2023-02-15T03:03:32;33.60;;;20.47;;
11197;SDS011;5655;48.744;9.162;2023-02-15T03:06:05;39.73;;;20.70;;
11197;SDS011;5655;48.744;9.162;2023-02-15T03:08:36;42.73;;;20.80;;
11197;SDS011;5655;48.744;9.162;2023-02-15T03:11:10;35.73;;;19.60;;
11197;SDS011;5655;48.744;9.162;2023-02-15T03:13:36;35.23;;;20.53;;
11197;SDS011;5655;48.744;9.162;2023-02-15T03:16:02;37.10;;;21.00;;
11197;SDS011;5655;48.744;9.162;2023-02-15T03:18:49;45.78;;;25.23;;
11197;SDS011;5655;48.744;9.162;2023-02-15T03:21:23;39.10;;;20.03;;
11197;SDS011;5655;48.744;9.162;2023-02-15T03:23:57;36.73;;;20.33;;
11197;SDS011;5655;48.744;9.162;2023-02-15T03:26:29;36.80;;;20.50;;
11197;SDS011;5655;48.744;9.162;2023-02-15T03:28:55;38.00;;;20.80;;
11197;SDS011;5655;48.744;9.162;2023-02-15T03:31:24;47.43;;;23.17;;
11197;SDS011;5655;48.744;9.162;2023-02-15T03:33:55;41.33;;;22.43;;
11197;SDS011;5655;48.744;9.162;2023-02-15T03:41:50;42.80;;;22.33;;
11197;SDS011;5655;48.744;9.162;2023-02-15T03:44:30;50.77;;;24.70;;
11197;SDS011;5655;48.744;9.162;2023-02-15T03:49:53;46.13;;;24.17;;
11197;SDS011;5655;48.744;9.162;2023-02-15T03:52:23;46.43;;;24.17;;
11197;SDS011;5655;48.744;9.162;2023-02-15T03:54:52;51.87;;;25.73;;
11197;SDS011;5655;48.744;9.162;2023-02-15T03:57:22;43.63;;;22.87;;
11197;SDS011;5655;48.744;9.162;2023-02-15T04:00:18;48.60;;;23.73;;
11197;SDS011;5655;48.744;9.162;2023-02-15T04:05:40;43.13;;;23.43;;
11197;SDS011;5655;48.744;9.162;2023-02-15T04:08:07;43.83;;;23.40;;
11197;SDS011;5655;48.744;9.162;2023-02-15T04:10:33;51.13;;;24.63;;
11197;SDS011;5655;48.744;9.162;2023-02-15T04:13:16;50.85;;;26.45;;
11197;SDS011;5655;48.744;9.162;2023-02-15T04:15:42;44.83;;;23.83;;
11197;SDS011;5655;48.744;9.162;2023-02-15T04:18:26;39.87;;;23.23;;
11197;SDS011;5655;48.744;9.162;2023-02-15T04:21:10;55.80;;;22.50;;
11197;SDS011;5655;48.744;9.162;2023-02-15T04:23:53;60.50;;;26.77;;
11197;SDS011;5655;48.744;9.162;2023-02-15T04:26:37;46.67;;;24.23;;
11197;SDS011;5655;48.744;9.162;2023-02-15T04:29:03;41.73;;;21.63;;
11197;SDS011;5655;48.744;9.162;2023-02-15T04:31:28;40.63;;;21.83;;
11197;SDS011;5655;48.744;9.162;2023-02-15T04:33:53;39.23;;;21.80;;
11197;SDS011;5655;48.744;9.162;2023-02-15T04:36:18;39.20;;;22.07;;
11197;SDS011;5655;48.744;9.162;2023-02-15T04:38:44;38.03;;;21.40;;
11197;SDS011;5655;48.744;9.162;2023-02-15T04:41:09;38.03;;;21.60;;
11197;SDS011;5655;48.744;9.162;2023-02-15T04:43:36;35.10;;;20.03;;
11197;SDS011;5655;48.744;9.162;2023-02-15T04:46:01;38.20;;;19.13;;
11197;SDS011;5655;48.744;9.162;2023-02-15T04:48:26;40.17;;;20.83;;
11197;SDS011;5655;48.744;9.162;2023-02-15T04:50:52;37.27;;;20.33;;
11197;SDS011;5655;48.744;9.162;2023-02-15T04:53:17;38.27;;;20.37;;
11197;SDS011;5655;48.744;9.162;2023-02-15T04:55:43;42.50;;;21.50;;
11197;SDS011;5655;48.744;9.162;2023-02-15T04:58:08;42.93;;;22.07;;
11197;SDS011;5655;48.744;9.162;2023-02-15T05:00:33;44.47;;;21.30;;
11197;SDS011;5655;48.744;9.162;2023-02-15T05:02:59;39.83;;;22.60;;
11197;SDS011;5655;48.744;9.162;2023-02-15T05:05:24;44.00;;;23.17;;
11197;SDS011;5655;48.744;9.162;2023-02-15T05:07:49;42.47;;;22.63;;
11197;SDS011;5655;48.744;9.162;2023-02-15T05:10:15;48.23;;;26.47;;
11197;SDS011;5655;48.744;9.162;2023-02-15T05:12:40;43.37;;;22.67;;
11197;SDS011;5655;48.744;9.162;2023-02-15T05:15:05;49.97;;;22.73;;
11197;SDS011;5655;48.744;9.162;2023-02-15T05:17:31;42.47;;;22.17;;
11197;SDS011;5655;48.744;9.162;2023-02-15T05:19:56;41.17;;;21.07;;
11197;SDS011;5655;48.744;9.162;2023-02-15T05:22:22;39.50;;;22.23;;
11197;SDS011;5655;48.744;9.162;2023-02-15T05:24:47;30.83;;;18.63;;
11197;SDS011;5655;48.744;9.162;2023-02-15T05:27:31;39.47;;;22.00;;
11197;SDS011;5655;48.744;9.162;2023-02-15T05:30:15;40.20;;;21.53;;
11197;SDS011;5655;48.744;9.162;2023-02-15T05:32:40;34.77;;;20.47;;
11197;SDS011;5655;48.744;9.162;2023-02-15T05:35:06;36.57;;;20.40;;
11197;SDS011;5655;48.744;9.162;2023-02-15T05:37:32;32.23;;;19.37;;
11197;SDS011;5655;48.744;9.162;2023-02-15T05:39:58;37.77;;;18.67;;
11197;SDS011;5655;48.744;9.162;2023-02-15T05:42:23;33.97;;;17.90;;
11197;SDS011;5655;48.744;9.162;2023-02-15T05:44:49;32.57;;;18.93;;
11197;SDS011;5655;48.744;9.162;2023-02-15T05:47:14;35.70;;;19.80;;
11197;SDS011;5655;48.744;9.162;2023-02-15T05:49:39;36.33;;;20.20;;
11197;SDS011;5655;48.744;9.162;2023-02-15T05:52:05;35.90;;;20.03;;
11197;SDS011;5655;48.744;9.162;2023-02-15T05:54:30;37.17;;;20.83;;
11197;SDS011;5655;48.744;9.162;2023-02-15T05:56:55;43.40;;;21.60;;
11197;SDS011;5655;48.744;9.162;2023-02-15T05:59:21;49.17;;;23.00;;
11197;SDS011;5655;48.744;9.162;2023-02-15T06:01:46;39.87;;;21.60;;
11197;SDS011;5655;48.744;9.162;2023-02-15T06:04:12;41.43;;;21.60;;
11197;SDS011;5655;48.744;9.162;2023-02-15T06:06:37;42.03;;;22.10;;
11197;SDS011;5655;48.744;9.162;2023-02-15T06:09:02;45.03;;;28.60;;
11197;SDS011;5655;48.744;9.162;2023-02-15T06:11:28;37.00;;;22.87;;
11197;SDS011;5655;48.744;9.162;2023-02-15T06:13:53;39.17;;;22.13;;
11197;SDS011;5655;48.744;9.162;2023-02-15T06:16:18;43.33;;;22.20;;
11197;SDS011;5655;48.744;9.162;2023-02-15T06:18:44;40.43;;;21.23;;
11197;SDS011;5655;48.744;9.162;2023-02-15T06:21:09;44.67;;;22.60;;
11197;SDS011;5655;48.744;9.162;2023-02-15T06:23:34;42.47;;;21.53;;
11197;SDS011;5655;48.744;9.162;2023-02-15T06:26:00;38.17;;;21.00;;
11197;SDS011;5655;48.744;9.162;2023-02-15T06:28:25;35.90;;;19.83;;
11197;SDS011;5655;48.744;9.162;2023-02-15T06:30:50;40.23;;;21.40;;
11197;SDS011;5655;48.744;9.162;2023-02-15T06:33:16;40.17;;;20.27;;
11197;SDS011;5655;48.744;9.162;2023-02-15T06:35:41;44.30;;;22.73;;
11197;SDS011;5655;48.744;9.162;2023-02-15T06:38:07;45.33;;;22.33;;
11197;SDS011;5655;48.744;9.162;2023-02-15T06:40:32;42.73;;;23.03;;
11197;SDS011;5655;48.744;9.162;2023-02-15T06:42:57;38.10;;;21.50;;
11197;SDS011;5655;48.744;9.162;2023-02-15T06:45:22;46.40;;;21.57;;
11197;SDS011;5655;48.744;9.162;2023-02-15T06:47:48;39.80;;;21.33;;
11197;SDS011;5655;48.744;9.162;2023-02-15T06:50:13;41.67;;;23.33;;
11197;SDS011;5655;48.744;9.162;2023-02-15T06:52:38;48.13;;;22.90;;
11197;SDS011;5655;48.744;9.162;2023-02-15T06:55:04;47.47;;;23.13;;
11197;SDS011;5655;48.744;9.162;2023-02-15T06:57:30;43.83;;;23.00;;
11197;SDS011;5655;48.744;9.162;2023-02-15T06:59:55;44.17;;;22.93;;
11197;SDS011;5655;48.744;9.162;2023-02-15T07:02:20;47.93;;;23.37;;
11197;SDS011;5655;48.744;9.162;2023-02-15T07:04:46;46.23;;;23.77;;
11197;SDS011;5655;48.744;9.162;2023-02-15T07:07:11;39.13;;;23.00;;
11197;SDS011;5655;48.744;9.162;2023-02-15T07:09:37;37.47;;;22.00;;
11197;SDS011;5655;48.744;9.162;2023-02-15T07:12:03;43.43;;;22.13;;
11197;SDS011;5655;48.744;9.162;2023-02-15T07:14:48;46.10;;;24.40;;
11197;SDS011;5655;48.744;9.162;2023-02-15T07:17:13;44.87;;;23.83;;
11197;SDS011;5655;48.744;9.162;2023-02-15T07:19:39;46.10;;;24.97;;
11197;SDS011;5655;48.744;9.162;2023-02-15T07:22:04;43.90;;;24.13;;
11197;SDS011;5655;48.744;9.162;2023-02-15T07:24:30;44.77;;;24.03;;
11197;SDS011;5655;48.744;9.162;2023-02-15T07:26:55;42.23;;;23.63;;
11197;SDS011;5655;48.744;9.162;2023-02-15T07:29:22;48.93;;;24.97;;
11197;SDS011;5655;48.744;9.162;2023-02-15T07:31:48;46.83;;;24.70;;
11197;SDS011;5655;48.744;9.162;2023-02-15T07:34:13;43.40;;;25.17;;
11197;SDS011;5655;48.744;9.162;2023-02-15T07:36:38;41.03;;;23.70;;
11197;SDS011;5655;48.744;9.162;2023-02-15T07:39:04;45.80;;;25.37;;
11197;SDS011;5655;48.744;9.162;2023-02-15T07:41:29;44.13;;;24.83;;
11197;SDS011;5655;48.744;9.162;2023-02-15T07:43:54;45.20;;;24.57;;
11197;SDS011;5655;48.744;9.162;2023-02-15T07:46:20;48.97;;;26.50;;
11197;SDS011;5655;48.744;9.162;2023-02-15T07:48:45;48.77;;;25.17;;
11197;SDS011;5655;48.744;9.162;2023-02-15T07:51:11;52.27;;;29.83;;
11197;SDS011;5655;48.744;9.162;2023-02-15T07:53:38;49.20;;;25.97;;
11197;SDS011;5655;48.744;9.162;2023-02-15T07:56:05;49.90;;;25.60;;
11197;SDS011;5655;48.744;9.162;2023-02-15T07:58:33;45.63;;;25.70;;
11197;SDS011;5655;48.744;9.162;2023-02-15T08:01:22;44.53;;;23.67;;
11197;SDS011;5655;48.744;9.162;2023-02-15T08:03:52;45.63;;;25.27;;
11197;SDS011;5655;48.744;9.162;2023-02-15T08:06:19;44.00;;;23.53;;
11197;SDS011;5655;48.744;9.162;2023-02-15T08:08:45;45.77;;;23.07;;
11197;SDS011;5655;48.744;9.162;2023-02-15T08:16:37;42.30;;;23.37;;
11197;SDS011;5655;48.744;9.162;2023-02-15T08:19:09;43.70;;;24.03;;
11197;SDS011;5655;48.744;9.162;2023-02-15T08:21:36;40.43;;;23.47;;
11197;SDS011;5655;48.744;9.162;2023-02-15T08:24:03;38.17;;;22.30;;
11197;SDS011;5655;48.744;9.162;2023-02-15T08:26:29;40.17;;;22.83;;
11197;SDS011;5655;48.744;9.162;2023-02-15T08:28:55;38.60;;;22.73;;
11197;SDS011;5655;48.744;9.162;2023-02-15T08:31:22;38.70;;;22.73;;
11197;SDS011;5655;48.744;9.162;2023-02-15T08:33:48;39.33;;;22.10;;
11197;SDS011;5655;48.744;9.162;2023-02-15T08:36:16;40.77;;;22.23;;
11197;SDS011;5655;48.744;9.162;2023-02-15T08:38:44;35.07;;;22.03;;
11197;SDS011;5655;48.744;9.162;2023-02-15T08:41:10;32.83;;;20.80;;
11197;SDS011;5655;48.744;9.162;2023-02-15T08:43:36;38.43;;;22.13;;
11197;SDS011;5655;48.744;9.162;2023-02-15T08:46:01;33.23;;;21.03;;
11197;SDS011;5655;48.744;9.162;2023-02-15T08:48:27;37.03;;;20.23;;
11197;SDS011;5655;48.744;9.162;2023-02-15T08:50:52;35.73;;;20.63;;
11197;SDS011;5655;48.744;9.162;2023-02-15T08:53:17;32.17;;;19.10;;
11197;SDS011;5655;48.744;9.162;2023-02-15T08:55:46;31.43;;;18.80;;
11197;SDS011;5655;48.744;9.162;2023-02-15T08:58:11;26.50;;;17.40;;
11197;SDS011;5655;48.744;9.162;2023-02-15T09:00:37;26.83;;;17.17;;
11197;SDS011;5655;48.744;9.162;2023-02-15T09:03:02;29.17;;;17.10;;
11197;SDS011;5655;48.744;9.162;2023-02-15T09:05:28;29.65;;;16.75;;
11197;SDS011;5655;48.744;9.162;2023-02-15T09:07:53;26.03;;;16.03;;
11197;SDS011;5655;48.744;9.162;2023-02-15T09:10:18;27.50;;;16.40;;
11197;SDS011;5655;48.744;9.162;2023-02-15T09:12:45;28.35;;;17.13;;
11197;SDS011;5655;48.744;9.162;2023-02-15T09:15:10;28.65;;;17.05;;
11197;SDS011;5655;48.744;9.162;2023-02-15T09:17:35;25.02;;;15.70;;
11197;SDS011;5655;48.744;9.162;2023-02-15T09:20:01;25.33;;;15.30;;
11197;SDS011;5655;48.744;9.162;2023-02-15T09:22:26;28.35;;;14.70;;
11197;SDS011;5655;48.744;9.162;2023-02-15T09:24:51;22.13;;;14.30;;
11197;SDS011;5655;48.744;9.162;2023-02-15T09:27:17;24.92;;;13.90;;
11197;SDS011;5655;48.744;9.162;2023-02-15T09:29:42;23.73;;;13.02;;
11197;SDS011;5655;48.744;9.162;2023-02-15T09:32:07;23.63;;;14.07;;
11197;SDS011;5655;48.744;9.162;2023-02-15T09:34:33;22.17;;;13.77;;
11197;SDS011;5655;48.744;9.162;2023-02-15T09:36:58;22.50;;;14.15;;
11197;SDS011;5655;48.744;9.162;2023-02-15T09:39:24;26.52;;;14.57;;
11197;SDS011;5655;48.744;9.162;2023-02-15T09:58:52;20.42;;;11.50;;
11197;SDS011;5655;48.744;9.162;2023-02-15T10:06:31;15.38;;;10.25;;
11197;SDS011;5655;48.744;9.162;2023-02-15T10:12:07;14.63;;;10.73;;
11197;SDS011;5655;48.744;9.162;2023-02-15T10:14:37;14.50;;;10.15;;
11197;SDS011;5655;48.744;9.162;2023-02-15T10:22:35;14.98;;;9.77;;
11197;SDS011;5655;48.744;9.162;2023-02-15T10:27:55;15.65;;;10.15;;
11197;SDS011;5655;48.744;9.162;2023-02-15T10:33:04;13.55;;;10.05;;
11197;SDS011;5655;48.744;9.162;2023-02-15T10:35:49;15.27;;;9.43;;
11197;SDS011;5655;48.744;9.162;2023-02-15T10:38:42;13.55;;;9.35;;
11197;SDS011;5655;48.744;9.162;2023-02-15T10:49:20;17.08;;;10.95;;
11197;SDS011;5655;48.744;9.162;2023-02-15T10:57:23;16.77;;;10.45;;
11197;SDS011;5655;48.744;9.162;2023-02-15T11:07:52;16.20;;;10.82;;
11197;SDS011;5655;48.744;9.162;2023-02-15T11:12:52;18.20;;;11.80;;
11197;SDS011;5655;48.744;9.162;2023-02-15T11:15:26;17.85;;;11.60;;
11197;SDS011;5655;48.744;9.162;2023-02-15T11:17:59;19.75;;;11.23;;
11197;SDS011;5655;48.744;9.162;2023-02-15T11:20:33;17.60;;;11.07;;
11197;SDS011;5655;48.744;9.162;2023-02-15T11:23:00;18.00;;;10.50;;
11197;SDS011;5655;48.744;9.162;2023-02-15T11:25:31;15.48;;;9.70;;
11197;SDS011;5655;48.744;9.162;2023-02-15T11:27:58;15.75;;;9.73;;
11197;SDS011;5655;48.744;9.162;2023-02-15T11:30:29;15.57;;;11.02;;
11197;SDS011;5655;48.744;9.162;2023-02-15T11:33:20;17.63;;;10.73;;
11197;SDS011;5655;48.744;9.162;2023-02-15T11:36:12;17.17;;;10.23;;
11197;SDS011;5655;48.744;9.162;2023-02-15T11:38:47;27.13;;;16.02;;
11197;SDS011;5655;48.744;9.162;2023-02-15T11:41:18;28.30;;;16.23;;
11197;SDS011;5655;48.744;9.162;2023-02-15T11:43:57;30.20;;;17.30;;
11197;SDS011;5655;48.744;9.162;2023-02-15T11:46:30;28.38;;;17.13;;
11197;SDS011;5655;48.744;9.162;2023-02-15T11:48:55;29.08;;;16.77;;
11197;SDS011;5655;48.744;9.162;2023-02-15T11:51:21;28.27;;;17.38;;
11197;SDS011;5655;48.744;9.162;2023-02-15T11:53:48;24.63;;;16.83;;
11197;SDS011;5655;48.744;9.162;2023-02-15T11:56:15;28.38;;;17.00;;
11197;SDS011;5655;48.744;9.162;2023-02-15T11:58:51;29.75;;;18.27;;
11197;SDS011;5655;48.744;9.162;2023-02-15T12:01:31;25.92;;;16.85;;
11197;SDS011;5655;48.744;9.162;2023-02-15T12:04:00;29.17;;;17.90;;
11197;SDS011;5655;48.744;9.162;2023-02-15T12:06:34;27.73;;;17.50;;
11197;SDS011;5655;48.744;9.162;2023-02-15T12:09:07;25.50;;;17.63;;
11197;SDS011;5655;48.744;9.162;2023-02-15T12:11:44;29.95;;;16.98;;
11197;SDS011;5655;48.744;9.162;2023-02-15T12:14:10;28.00;;;17.00;;
11197;SDS011;5655;48.744;9.162;2023-02-15T12:22:45;23.20;;;16.88;;
11197;SDS011;5655;48.744;9.162;2023-02-15T12:25:21;24.00;;;16.45;;
11197;SDS011;5655;48.744;9.162;2023-02-15T12:27:47;27.98;;;17.80;;
11197;SDS011;5655;48.744;9.162;2023-02-15T12:30:29;27.35;;;17.33;;
11197;SDS011;5655;48.744;9.162;2023-02-15T12:35:40;26.35;;;17.00;;
11197;SDS011;5655;48.744;9.162;2023-02-15T12:38:21;24.27;;;17.60;;
11197;SDS011;5655;48.744;9.162;2023-02-15T12:40:59;26.50;;;17.42;;
11197;SDS011;5655;48.744;9.162;2023-02-15T12:43:46;27.88;;;16.98;;
11197;SDS011;5655;48.744;9.162;2023-02-15T12:48:42;25.40;;;16.45;;
11197;SDS011;5655;48.744;9.162;2023-02-15T12:51:08;27.73;;;18.35;;
11197;SDS011;5655;48.744;9.162;2023-02-15T12:53:41;24.45;;;17.20;;
11197;SDS011;5655;48.744;9.162;2023-02-15T12:56:08;27.13;;;17.95;;
11197;SDS011;5655;48.744;9.162;2023-02-15T12:58:35;24.77;;;17.52;;
11197;SDS011;5655;48.744;9.162;2023-02-15T13:03:34;26.13;;;17.75;;
11197;SDS011;5655;48.744;9.162;2023-02-15T13:06:00;24.73;;;16.17;;
11197;SDS011;5655;48.744;9.162;2023-02-15T13:08:33;24.55;;;16.63;;
11197;SDS011;5655;48.744;9.162;2023-02-15T13:11:03;30.67;;;18.75;;
11197;SDS011;5655;48.744;9.162;2023-02-15T13:13:35;24.60;;;17.65;;
11197;SDS011;5655;48.744;9.162;2023-02-15T13:16:12;26.50;;;17.15;;
11197;SDS011;5655;48.744;9.162;2023-02-15T13:18:45;25.70;;;17.35;;
11197;SDS011;5655;48.744;9.162;2023-02-15T13:23:37;24.00;;;17.55;;
11197;SDS011;5655;48.744;9.162;2023-02-15T13:26:05;25.70;;;17.80;;
11197;SDS011;5655;48.744;9.162;2023-02-15T13:28:38;26.35;;;18.42;;
11197;SDS011;5655;48.744;9.162;2023-02-15T13:31:12;25.73;;;18.23;;
11197;SDS011;5655;48.744;9.162;2023-02-15T13:33:48;25.40;;;17.67;;
11197;SDS011;5655;48.744;9.162;2023-02-15T13:36:29;25.23;;;17.17;;
11197;SDS011;5655;48.744;9.162;2023-02-15T13:39:20;27.40;;;18.08;;
11197;SDS011;5655;48.744;9.162;2023-02-15T13:41:52;26.02;;;17.00;;
11197;SDS011;5655;48.744;9.162;2023-02-15T13:44:26;25.17;;;17.77;;
11197;SDS011;5655;48.744;9.162;2023-02-15T13:52:27;29.35;;;17.83;;
11197;SDS011;5655;48.744;9.162;2023-02-15T13:55:17;26.52;;;18.30;;
11197;SDS011;5655;48.744;9.162;2023-02-15T14:00:56;27.13;;;17.50;;
11197;SDS011;5655;48.744;9.162;2023-02-15T14:06:24;25.17;;;17.63;;
11197;SDS011;5655;48.744;9.162;2023-02-15T14:11:39;23.98;;;16.25;;
11197;SDS011;5655;48.744;9.162;2023-02-15T14:18:12;27.92;;;16.27;;
11197;SDS011;5655;48.744;9.162;2023-02-15T14:20:39;23.88;;;15.05;;
11197;SDS011;5655;48.744;9.162;2023-02-15T14:23:19;25.33;;;15.43;;
11197;SDS011;5655;48.744;9.162;2023-02-15T14:26:00;25.02;;;16.55;;
11197;SDS011;5655;48.744;9.162;2023-02-15T14:28:33;26.77;;;16.27;;
11197;SDS011;5655;48.744;9.162;2023-02-15T14:31:16;21.98;;;16.27;;
11197;SDS011;5655;48.744;9.162;2023-02-15T14:33:58;22.27;;;15.23;;
11197;SDS011;5655;48.744;9.162;2023-02-15T14:36:23;25.85;;;16.17;;
11197;SDS011;5655;48.744;9.162;2023-02-15T14:38:52;24.52;;;15.43;;
11197;SDS011;5655;48.744;9.162;2023-02-15T14:42:04;26.95;;;17.30;;
11197;SDS011;5655;48.744;9.162;2023-02-15T14:44:45;23.88;;;16.80;;
11197;SDS011;5655;48.744;9.162;2023-02-15T14:50:35;27.00;;;17.67;;
11197;SDS011;5655;48.744;9.162;2023-02-15T14:55:47;31.42;;;17.60;;
11197;SDS011;5655;48.744;9.162;2023-02-15T14:58:12;24.08;;;16.20;;
11197;SDS011;5655;48.744;9.162;2023-02-15T15:00:41;28.83;;;16.88;;
11197;SDS011;5655;48.744;9.162;2023-02-15T15:03:11;27.73;;;16.50;;
11197;SDS011;5655;48.744;9.162;2023-02-15T15:05:49;30.25;;;18.00;;
11197;SDS011;5655;48.744;9.162;2023-02-15T15:08:22;28.23;;;17.73;;
11197;SDS011;5655;48.744;9.162;2023-02-15T15:10:51;30.42;;;18.58;;
11197;SDS011;5655;48.744;9.162;2023-02-15T15:18:50;31.70;;;17.80;;
11197;SDS011;5655;48.744;9.162;2023-02-15T15:21:51;28.42;;;17.83;;
11197;SDS011;5655;48.744;9.162;2023-02-15T15:49:57;27.80;;;15.55;;
11197;SDS011;5655;48.744;9.162;2023-02-15T15:52:24;23.45;;;15.18;;
11197;SDS011;5655;48.744;9.162;2023-02-15T15:55:02;25.08;;;15.80;;
11197;SDS011;5655;48.744;9.162;2023-02-15T15:57:39;25.55;;;15.70;;
11197;SDS011;5655;48.744;9.162;2023-02-15T16:00:23;23.15;;;15.45;;
11197;SDS011;5655;48.744;9.162;2023-02-15T16:02:55;26.92;;;15.30;;
11197;SDS011;5655;48.744;9.162;2023-02-15T16:05:21;21.10;;;15.02;;
11197;SDS011;5655;48.744;9.162;2023-02-15T16:07:47;20.77;;;15.38;;
11197;SDS011;5655;48.744;9.162;2023-02-15T16:12:57;22.27;;;15.20;;
11197;SDS011;5655;48.744;9.162;2023-02-15T16:15:36;25.77;;;16.23;;
11197;SDS011;5655;48.744;9.162;2023-02-15T16:18:12;23.48;;;16.10;;
11197;SDS011;5655;48.744;9.162;2023-02-15T16:20:40;27.52;;;17.30;;
11197;SDS011;5655;48.744;9.162;2023-02-15T16:28:29;24.55;;;16.05;;
11197;SDS011;5655;48.744;9.162;2023-02-15T16:31:04;26.73;;;16.67;;
11197;SDS011;5655;48.744;9.162;2023-02-15T16:33:36;23.60;;;15.68;;
11197;SDS011;5655;48.744;9.162;2023-02-15T16:36:03;27.88;;;17.00;;
11197;SDS011;5655;48.744;9.162;2023-02-15T16:41:07;24.42;;;16.20;;
11197;SDS011;5655;48.744;9.162;2023-02-15T16:43:34;30.65;;;15.88;;
11197;SDS011;5655;48.744;9.162;2023-02-15T16:46:04;25.77;;;16.45;;
11197;SDS011;5655;48.744;9.162;2023-02-15T16:48:38;26.67;;;17.40;;
11197;SDS011;5655;48.744;9.162;2023-02-15T16:51:06;22.17;;;15.30;;
11197;SDS011;5655;48.744;9.162;2023-02-15T16:53:33;28.80;;;16.42;;
11197;SDS011;5655;48.744;9.162;2023-02-15T16:56:00;26.48;;;15.88;;
11197;SDS011;5655;48.744;9.162;2023-02-15T16:58:35;23.40;;;15.18;;
11197;SDS011;5655;48.744;9.162;2023-02-15T17:01:05;24.80;;;14.68;;
11197;SDS011;5655;48.744;9.162;2023-02-15T17:03:34;22.52;;;14.10;;
11197;SDS011;5655;48.744;9.162;2023-02-15T17:06:00;24.35;;;14.35;;
11197;SDS011;5655;48.744;9.162;2023-02-15T17:08:29;22.88;;;12.48;;
11197;SDS011;5655;48.744;9.162;2023-02-15T17:13:34;18.85;;;11.35;;
11197;SDS011;5655;48.744;9.162;2023-02-15T17:18:26;18.65;;;11.15;;
11197;SDS011;5655;48.744;9.162;2023-02-15T17:21:11;23.55;;;11.40;;
11197;SDS011;5655;48.744;9.162;2023-02-15T17:23:42;21.00;;;10.73;;
11197;SDS011;5655;48.744;9.162;2023-02-15T17:26:11;21.88;;;10.23;;
11197;SDS011;5655;48.744;9.162;2023-02-15T17:28:37;18.00;;;10.07;;
11197;SDS011;5655;48.744;9.162;2023-02-15T17:31:09;21.58;;;10.73;;
11197;SDS011;5655;48.744;9.162;2023-02-15T17:36:09;19.17;;;10.30;;
11197;SDS011;5655;48.744;9.162;2023-02-15T17:38:39;17.38;;;9.60;;
11197;SDS011;5655;48.744;9.162;2023-02-15T17:41:05;18.67;;;11.27;;
11197;SDS011;5655;48.744;9.162;2023-02-15T17:43:31;17.90;;;9.23;;
11197;SDS011;5655;48.744;9.162;2023-02-15T17:45:56;18.98;;;9.10;;
11197;SDS011;5655;48.744;9.162;2023-02-15T17:51:03;17.17;;;10.43;;
11197;SDS011;5655;48.744;9.162;2023-02-15T17:53:30;18.83;;;11.68;;
11197;SDS011;5655;48.744;9.162;2023-02-15T17:55:56;18.55;;;11.18;;
11197;SDS011;5655;48.744;9.162;2023-02-15T17:58:21;19.35;;;11.38;;
11197;SDS011;5655;48.744;9.162;2023-02-15T18:00:48;25.67;;;12.63;;
11197;SDS011;5655;48.744;9.162;2023-02-15T18:03:46;19.77;;;11.52;;
11197;SDS011;5655;48.744;9.162;2023-02-15T18:06:30;20.45;;;11.48;;
11197;SDS011;5655;48.744;9.162;2023-02-15T18:09:16;18.25;;;10.45;;
11197;SDS011;5655;48.744;9.162;2023-02-15T18:12:01;18.52;;;10.23;;